sensor_id;sensor_type;location;lat;lon;timestamp;temperature;humidity
26599;DHT22;14240;51.064;16.612;2023-03-01T00:00:21;-1.00;99.90
26599;DHT22;14240;51.064;16.612;2023-03-01T00:02:47;-0.90;99.90
26599;DHT22;14240;51.064;16.612;2023-03-01T00:05:13;-1.00;99.90
26599;DHT22;14240;51.064;16.612;2023-03-01T00:07:38;-1.00;99.90
26599;DHT22;14240;51.064;16.612;2023-03-01T00:10:04;-1.00;99.90
26599;DHT22;14240;51.064;16.612;2023-03-01T00:12:31;-1.10;99.90
26599;DHT22;14240;51.064;16.612;2023-03-01T00:14:57;-1.10;99.90
26599;DHT22;14240;51.064;16.612;2023-03-01T00:17:22;-1.10;99.90
26599;DHT22;14240;51.064;16.612;2023-03-01T00:19:48;-1.10;99.90
26599;DHT22;14240;51.064;16.612;2023-03-01T00:22:14;-1.20;99.90
26599;DHT22;14240;51.064;16.612;2023-03-01T00:24:39;-1.20;99.90
26599;DHT22;14240;51.064;16.612;2023-03-01T00:27:05;-1.20;99.90
26599;DHT22;14240;51.064;16.612;2023-03-01T00:29:31;-1.20;99.90
26599;DHT22;14240;51.064;16.612;2023-03-01T00:31:57;-1.20;99.90
26599;DHT22;14240;51.064;16.612;2023-03-01T00:34:22;-1.20;99.90
26599;DHT22;14240;51.064;16.612;2023-03-01T00:36:48;-1.20;99.90
26599;DHT22;14240;51.064;16.612;2023-03-01T00:39:15;-1.20;99.90
26599;DHT22;14240;51.064;16.612;2023-03-01T00:41:41;-1.20;99.90
26599;DHT22;14240;51.064;16.612;2023-03-01T00:44:07;-1.30;99.90
26599;DHT22;14240;51.064;16.612;2023-03-01T00:46:33;-1.30;99.90
26599;DHT22;14240;51.064;16.612;2023-03-01T00:48:59;-1.40;99.90
26599;DHT22;14240;51.064;16.612;2023-03-01T00:51:28;-1.40;99.90
26599;DHT22;14240;51.064;16.612;2023-03-01T00:53:55;-1.40;99.90
26599;DHT22;14240;51.064;16.612;2023-03-01T00:56:22;-1.40;99.90
26599;DHT22;14240;51.064;16.612;2023-03-01T00:58:48;-1.40;99.90
26599;DHT22;14240;51.064;16.612;2023-03-01T01:01:20;-1.40;99.90
26599;DHT22;14240;51.064;16.612;2023-03-01T01:03:51;-1.40;99.90
26599;DHT22;14240;51.064;16.612;2023-03-01T01:08:47;-1.40;99.90
26599;DHT22;14240;51.064;16.612;2023-03-01T01:11:14;-1.40;99.90
26599;DHT22;14240;51.064;16.612;2023-03-01T01:13:40;-1.50;99.90
26599;DHT22;14240;51.064;16.612;2023-03-01T01:16:07;-1.50;99.90
26599;DHT22;14240;51.064;16.612;2023-03-01T01:18:33;-1.50;99.90
26599;DHT22;14240;51.064;16.612;2023-03-01T01:21:07;-1.60;99.90
26599;DHT22;14240;51.064;16.612;2023-03-01T01:23:33;-1.60;99.90
26599;DHT22;14240;51.064;16.612;2023-03-01T01:26:24;-1.60;99.90
26599;DHT22;14240;51.064;16.612;2023-03-01T01:28:51;-1.60;99.90
26599;DHT22;14240;51.064;16.612;2023-03-01T01:31:17;-1.70;99.90
26599;DHT22;14240;51.064;16.612;2023-03-01T01:33:44;-1.60;99.90
26599;DHT22;14240;51.064;16.612;2023-03-01T01:36:10;-1.70;99.90
26599;DHT22;14240;51.064;16.612;2023-03-01T01:38:37;-1.70;99.90
26599;DHT22;14240;51.064;16.612;2023-03-01T01:41:03;-1.70;99.90
26599;DHT22;14240;51.064;16.612;2023-03-01T01:43:38;-1.70;99.90
26599;DHT22;14240;51.064;16.612;2023-03-01T01:46:31;-1.70;99.90
26599;DHT22;14240;51.064;16.612;2023-03-01T01:49:01;-1.70;99.90
26599;DHT22;14240;51.064;16.612;2023-03-01T01:51:35;-1.70;99.90
26599;DHT22;14240;51.064;16.612;2023-03-01T01:54:08;-1.70;99.90
26599;DHT22;14240;51.064;16.612;2023-03-01T01:56:36;-1.70;99.90
26599;DHT22;14240;51.064;16.612;2023-03-01T01:59:03;-1.80;99.90
26599;DHT22;14240;51.064;16.612;2023-03-01T02:01:29;-1.80;99.90
26599;DHT22;14240;51.064;16.612;2023-03-01T02:03:55;-1.90;99.90
26599;DHT22;14240;51.064;16.612;2023-03-01T02:06:28;-1.80;99.90
26599;DHT22;14240;51.064;16.612;2023-03-01T02:09:02;-1.90;99.90
26599;DHT22;14240;51.064;16.612;2023-03-01T02:11:31;-1.90;99.90
26599;DHT22;14240;51.064;16.612;2023-03-01T02:13:58;-1.90;99.90
26599;DHT22;14240;51.064;16.612;2023-03-01T02:16:26;-1.90;99.90
26599;DHT22;14240;51.064;16.612;2023-03-01T02:18:52;-1.90;99.90
26599;DHT22;14240;51.064;16.612;2023-03-01T02:26:50;-1.90;99.90
26599;DHT22;14240;51.064;16.612;2023-03-01T02:29:22;-1.90;99.90
26599;DHT22;14240;51.064;16.612;2023-03-01T02:31:49;-1.90;99.90
26599;DHT22;14240;51.064;16.612;2023-03-01T02:34:19;-1.90;99.90
26599;DHT22;14240;51.064;16.612;2023-03-01T02:36:58;-1.90;99.90
26599;DHT22;14240;51.064;16.612;2023-03-01T02:39:36;-2.00;99.90
26599;DHT22;14240;51.064;16.612;2023-03-01T02:42:13;-1.90;99.90
26599;DHT22;14240;51.064;16.612;2023-03-01T02:44:40;-1.90;99.90
26599;DHT22;14240;51.064;16.612;2023-03-01T02:47:06;-2.00;99.90
26599;DHT22;14240;51.064;16.612;2023-03-01T02:49:34;-2.00;99.90
26599;DHT22;14240;51.064;16.612;2023-03-01T02:55:08;-2.00;99.90
26599;DHT22;14240;51.064;16.612;2023-03-01T02:57:36;-2.10;99.90
26599;DHT22;14240;51.064;16.612;2023-03-01T03:00:12;-2.10;99.90
26599;DHT22;14240;51.064;16.612;2023-03-01T03:02:49;-2.10;99.90
26599;DHT22;14240;51.064;16.612;2023-03-01T03:05:26;-2.10;99.90
26599;DHT22;14240;51.064;16.612;2023-03-01T03:07:53;-2.20;99.90
26599;DHT22;14240;51.064;16.612;2023-03-01T03:10:22;-2.20;99.90
26599;DHT22;14240;51.064;16.612;2023-03-01T03:12:53;-2.20;99.90
26599;DHT22;14240;51.064;16.612;2023-03-01T03:15:19;-2.20;99.90
26599;DHT22;14240;51.064;16.612;2023-03-01T03:17:46;-2.20;99.90
26599;DHT22;14240;51.064;16.612;2023-03-01T03:20:15;-2.20;99.90
26599;DHT22;14240;51.064;16.612;2023-03-01T03:22:45;-2.20;99.90
26599;DHT22;14240;51.064;16.612;2023-03-01T03:25:12;-2.20;99.90
26599;DHT22;14240;51.064;16.612;2023-03-01T03:27:39;-2.20;99.90
26599;DHT22;14240;51.064;16.612;2023-03-01T03:30:06;-2.20;99.90
26599;DHT22;14240;51.064;16.612;2023-03-01T03:32:41;-2.20;99.90
26599;DHT22;14240;51.064;16.612;2023-03-01T03:35:08;-2.20;99.90
26599;DHT22;14240;51.064;16.612;2023-03-01T03:37:38;-2.20;99.90
26599;DHT22;14240;51.064;16.612;2023-03-01T03:40:23;-2.20;99.90
26599;DHT22;14240;51.064;16.612;2023-03-01T03:42:49;-2.20;99.90
26599;DHT22;14240;51.064;16.612;2023-03-01T03:45:16;-2.20;99.90
26599;DHT22;14240;51.064;16.612;2023-03-01T03:47:42;-2.30;99.90
26599;DHT22;14240;51.064;16.612;2023-03-01T03:50:10;-2.30;99.90
26599;DHT22;14240;51.064;16.612;2023-03-01T03:52:36;-2.20;99.90
26599;DHT22;14240;51.064;16.612;2023-03-01T03:55:03;-2.30;99.90
26599;DHT22;14240;51.064;16.612;2023-03-01T03:57:29;-2.20;99.90
26599;DHT22;14240;51.064;16.612;2023-03-01T03:59:54;-2.30;99.90
26599;DHT22;14240;51.064;16.612;2023-03-01T04:02:20;-2.30;99.90
26599;DHT22;14240;51.064;16.612;2023-03-01T04:04:49;-2.30;99.90
26599;DHT22;14240;51.064;16.612;2023-03-01T04:07:16;-2.30;99.90
26599;DHT22;14240;51.064;16.612;2023-03-01T04:09:43;-2.30;99.90
26599;DHT22;14240;51.064;16.612;2023-03-01T04:12:09;-2.40;99.90
26599;DHT22;14240;51.064;16.612;2023-03-01T04:14:36;-2.40;99.90
26599;DHT22;14240;51.064;16.612;2023-03-01T04:17:02;-2.40;99.90
26599;DHT22;14240;51.064;16.612;2023-03-01T04:19:31;-2.40;99.90
26599;DHT22;14240;51.064;16.612;2023-03-01T04:22:02;-2.40;99.90
26599;DHT22;14240;51.064;16.612;2023-03-01T04:24:37;-2.40;99.90
26599;DHT22;14240;51.064;16.612;2023-03-01T04:27:03;-2.40;99.90
26599;DHT22;14240;51.064;16.612;2023-03-01T04:29:29;-2.50;99.90
26599;DHT22;14240;51.064;16.612;2023-03-01T04:31:55;-2.40;99.90
26599;DHT22;14240;51.064;16.612;2023-03-01T04:34:21;-2.50;99.90
26599;DHT22;14240;51.064;16.612;2023-03-01T04:36:46;-2.50;99.90
26599;DHT22;14240;51.064;16.612;2023-03-01T04:39:12;-2.50;99.90
26599;DHT22;14240;51.064;16.612;2023-03-01T04:41:39;-2.50;99.90
26599;DHT22;14240;51.064;16.612;2023-03-01T04:44:07;-2.50;99.90
26599;DHT22;14240;51.064;16.612;2023-03-01T04:46:35;-2.50;99.90
26599;DHT22;14240;51.064;16.612;2023-03-01T04:49:04;-2.50;99.90
26599;DHT22;14240;51.064;16.612;2023-03-01T04:51:31;-2.50;99.90
26599;DHT22;14240;51.064;16.612;2023-03-01T04:53:58;-2.50;99.90
26599;DHT22;14240;51.064;16.612;2023-03-01T04:56:25;-2.50;99.90
26599;DHT22;14240;51.064;16.612;2023-03-01T04:58:53;-2.50;99.90
26599;DHT22;14240;51.064;16.612;2023-03-01T05:01:20;-2.50;99.90
26599;DHT22;14240;51.064;16.612;2023-03-01T05:03:48;-2.50;99.90
26599;DHT22;14240;51.064;16.612;2023-03-01T05:06:15;-2.50;99.90
26599;DHT22;14240;51.064;16.612;2023-03-01T05:08:41;-2.60;99.90
26599;DHT22;14240;51.064;16.612;2023-03-01T05:11:08;-2.50;99.90
26599;DHT22;14240;51.064;16.612;2023-03-01T05:13:35;-2.50;99.90
26599;DHT22;14240;51.064;16.612;2023-03-01T05:16:03;-2.50;99.90
26599;DHT22;14240;51.064;16.612;2023-03-01T05:18:30;-2.60;99.90
26599;DHT22;14240;51.064;16.612;2023-03-01T05:21:04;-2.60;99.90
26599;DHT22;14240;51.064;16.612;2023-03-01T05:23:31;-2.60;99.90
26599;DHT22;14240;51.064;16.612;2023-03-01T05:25:59;-2.60;99.90
26599;DHT22;14240;51.064;16.612;2023-03-01T05:28:25;-2.60;99.90
26599;DHT22;14240;51.064;16.612;2023-03-01T05:30:51;-2.60;99.90
26599;DHT22;14240;51.064;16.612;2023-03-01T05:33:17;-2.60;99.90
26599;DHT22;14240;51.064;16.612;2023-03-01T05:35:45;-2.70;99.90
26599;DHT22;14240;51.064;16.612;2023-03-01T05:38:12;-2.60;99.90
26599;DHT22;14240;51.064;16.612;2023-03-01T05:40:46;-2.60;99.90
26599;DHT22;14240;51.064;16.612;2023-03-01T05:43:13;-2.70;99.90
26599;DHT22;14240;51.064;16.612;2023-03-01T05:45:40;-2.60;99.90
26599;DHT22;14240;51.064;16.612;2023-03-01T05:48:07;-2.60;99.90
26599;DHT22;14240;51.064;16.612;2023-03-01T05:50:36;-2.60;99.90
26599;DHT22;14240;51.064;16.612;2023-03-01T05:53:04;-2.60;99.90
26599;DHT22;14240;51.064;16.612;2023-03-01T05:55:34;-2.60;99.90
26599;DHT22;14240;51.064;16.612;2023-03-01T05:58:02;-2.50;99.90
26599;DHT22;14240;51.064;16.612;2023-03-01T06:00:29;-2.50;99.90
26599;DHT22;14240;51.064;16.612;2023-03-01T06:02:56;-2.40;99.90
26599;DHT22;14240;51.064;16.612;2023-03-01T06:05:22;-2.40;99.90
26599;DHT22;14240;51.064;16.612;2023-03-01T06:07:48;-2.40;99.90
26599;DHT22;14240;51.064;16.612;2023-03-01T06:10:15;-2.40;99.90
26599;DHT22;14240;51.064;16.612;2023-03-01T06:12:42;-2.40;99.90
26599;DHT22;14240;51.064;16.612;2023-03-01T06:15:10;-2.40;99.90
26599;DHT22;14240;51.064;16.612;2023-03-01T06:17:37;-2.30;99.90
26599;DHT22;14240;51.064;16.612;2023-03-01T06:20:05;-2.30;99.90
26599;DHT22;14240;51.064;16.612;2023-03-01T06:22:32;-2.20;99.90
26599;DHT22;14240;51.064;16.612;2023-03-01T06:24:57;-2.20;99.90
26599;DHT22;14240;51.064;16.612;2023-03-01T06:27:23;-2.20;99.90
26599;DHT22;14240;51.064;16.612;2023-03-01T06:29:49;-2.10;99.90
26599;DHT22;14240;51.064;16.612;2023-03-01T06:32:15;-2.10;99.90
26599;DHT22;14240;51.064;16.612;2023-03-01T06:34:40;-2.00;99.90
26599;DHT22;14240;51.064;16.612;2023-03-01T06:37:07;-2.00;99.90
26599;DHT22;14240;51.064;16.612;2023-03-01T06:39:33;-1.90;99.90
26599;DHT22;14240;51.064;16.612;2023-03-01T06:41:59;-1.80;99.90
26599;DHT22;14240;51.064;16.612;2023-03-01T06:44:25;-1.80;99.90
26599;DHT22;14240;51.064;16.612;2023-03-01T06:46:51;-1.60;99.90
26599;DHT22;14240;51.064;16.612;2023-03-01T06:49:16;-1.50;99.90
26599;DHT22;14240;51.064;16.612;2023-03-01T06:51:44;-1.40;99.90
26599;DHT22;14240;51.064;16.612;2023-03-01T06:54:10;-1.20;99.90
26599;DHT22;14240;51.064;16.612;2023-03-01T06:56:35;-1.10;99.90
26599;DHT22;14240;51.064;16.612;2023-03-01T06:59:02;-0.80;99.90
26599;DHT22;14240;51.064;16.612;2023-03-01T07:01:31;-0.50;99.90
26599;DHT22;14240;51.064;16.612;2023-03-01T07:03:57;-0.20;99.90
26599;DHT22;14240;51.064;16.612;2023-03-01T07:06:23;0.20;99.90
26599;DHT22;14240;51.064;16.612;2023-03-01T07:08:49;0.70;99.90
26599;DHT22;14240;51.064;16.612;2023-03-01T07:11:15;1.20;99.90
26599;DHT22;14240;51.064;16.612;2023-03-01T07:13:42;1.90;99.90
26599;DHT22;14240;51.064;16.612;2023-03-01T07:16:08;2.50;99.90
26599;DHT22;14240;51.064;16.612;2023-03-01T07:18:34;3.10;99.90
26599;DHT22;14240;51.064;16.612;2023-03-01T07:21:05;3.70;99.90
26599;DHT22;14240;51.064;16.612;2023-03-01T07:23:31;4.30;99.90
26599;DHT22;14240;51.064;16.612;2023-03-01T07:25:57;4.90;99.90
26599;DHT22;14240;51.064;16.612;2023-03-01T07:28:23;5.50;99.90
26599;DHT22;14240;51.064;16.612;2023-03-01T07:30:49;6.10;99.90
26599;DHT22;14240;51.064;16.612;2023-03-01T07:33:17;6.80;99.90
26599;DHT22;14240;51.064;16.612;2023-03-01T07:35:43;7.40;99.90
26599;DHT22;14240;51.064;16.612;2023-03-01T07:38:08;8.10;99.90
26599;DHT22;14240;51.064;16.612;2023-03-01T07:40:35;8.90;99.90
26599;DHT22;14240;51.064;16.612;2023-03-01T07:43:00;9.70;99.90
26599;DHT22;14240;51.064;16.612;2023-03-01T07:45:27;10.50;99.90
26599;DHT22;14240;51.064;16.612;2023-03-01T07:47:54;11.30;99.90
26599;DHT22;14240;51.064;16.612;2023-03-01T07:50:20;11.90;99.90
26599;DHT22;14240;51.064;16.612;2023-03-01T07:52:46;12.60;99.90
26599;DHT22;14240;51.064;16.612;2023-03-01T07:55:12;13.20;98.30
26599;DHT22;14240;51.064;16.612;2023-03-01T07:57:38;13.70;96.70
26599;DHT22;14240;51.064;16.612;2023-03-01T08:00:05;14.40;95.30
26599;DHT22;14240;51.064;16.612;2023-03-01T08:02:31;15.10;93.60
26599;DHT22;14240;51.064;16.612;2023-03-01T08:04:57;15.70;91.50
26599;DHT22;14240;51.064;16.612;2023-03-01T08:07:23;16.30;88.90
26599;DHT22;14240;51.064;16.612;2023-03-01T08:09:49;16.80;85.10
26599;DHT22;14240;51.064;16.612;2023-03-01T08:12:14;17.40;82.30
26599;DHT22;14240;51.064;16.612;2023-03-01T08:14:42;18.00;77.80
26599;DHT22;14240;51.064;16.612;2023-03-01T08:17:08;18.60;74.60
26599;DHT22;14240;51.064;16.612;2023-03-01T08:19:34;19.10;70.60
26599;DHT22;14240;51.064;16.612;2023-03-01T08:22:02;19.60;66.60
26599;DHT22;14240;51.064;16.612;2023-03-01T08:24:27;20.00;64.00
26599;DHT22;14240;51.064;16.612;2023-03-01T08:26:53;20.50;62.10
26599;DHT22;14240;51.064;16.612;2023-03-01T08:29:20;20.90;59.80
26599;DHT22;14240;51.064;16.612;2023-03-01T08:31:47;21.40;58.00
26599;DHT22;14240;51.064;16.612;2023-03-01T08:34:15;21.70;56.10
26599;DHT22;14240;51.064;16.612;2023-03-01T08:36:43;22.10;55.50
26599;DHT22;14240;51.064;16.612;2023-03-01T08:39:09;22.50;54.30
26599;DHT22;14240;51.064;16.612;2023-03-01T08:41:36;22.70;57.20
26599;DHT22;14240;51.064;16.612;2023-03-01T08:44:02;23.00;54.80
26599;DHT22;14240;51.064;16.612;2023-03-01T08:46:30;23.40;53.50
26599;DHT22;14240;51.064;16.612;2023-03-01T08:48:56;23.90;51.40
26599;DHT22;14240;51.064;16.612;2023-03-01T08:51:22;24.00;49.90
26599;DHT22;14240;51.064;16.612;2023-03-01T08:53:49;24.20;49.00
26599;DHT22;14240;51.064;16.612;2023-03-01T08:56:16;24.40;48.30
26599;DHT22;14240;51.064;16.612;2023-03-01T08:58:47;24.80;47.20
26599;DHT22;14240;51.064;16.612;2023-03-01T09:01:16;25.10;46.00
26599;DHT22;14240;51.064;16.612;2023-03-01T09:03:42;25.40;45.30
26599;DHT22;14240;51.064;16.612;2023-03-01T09:06:08;25.60;44.20
26599;DHT22;14240;51.064;16.612;2023-03-01T09:08:42;25.70;43.30
26599;DHT22;14240;51.064;16.612;2023-03-01T09:11:10;25.80;42.10
26599;DHT22;14240;51.064;16.612;2023-03-01T09:13:37;26.00;42.50
26599;DHT22;14240;51.064;16.612;2023-03-01T09:16:05;26.20;41.70
26599;DHT22;14240;51.064;16.612;2023-03-01T09:18:33;26.40;40.90
26599;DHT22;14240;51.064;16.612;2023-03-01T09:23:33;26.70;39.60
26599;DHT22;14240;51.064;16.612;2023-03-01T09:25:59;26.60;38.70
26599;DHT22;14240;51.064;16.612;2023-03-01T09:28:25;26.40;39.50
26599;DHT22;14240;51.064;16.612;2023-03-01T09:30:51;26.50;39.20
26599;DHT22;14240;51.064;16.612;2023-03-01T09:33:16;26.40;39.30
26599;DHT22;14240;51.064;16.612;2023-03-01T09:35:42;26.20;38.90
26599;DHT22;14240;51.064;16.612;2023-03-01T09:38:13;26.30;38.70
26599;DHT22;14240;51.064;16.612;2023-03-01T09:40:43;26.20;39.50
26599;DHT22;14240;51.064;16.612;2023-03-01T09:46:06;26.10;38.40
26599;DHT22;14240;51.064;16.612;2023-03-01T09:48:46;25.90;38.80
26599;DHT22;14240;51.064;16.612;2023-03-01T09:51:18;25.70;38.80
26599;DHT22;14240;51.064;16.612;2023-03-01T09:53:45;25.50;38.80
26599;DHT22;14240;51.064;16.612;2023-03-01T10:06:50;22.10;41.40
26599;DHT22;14240;51.064;16.612;2023-03-01T10:09:17;21.30;41.70
26599;DHT22;14240;51.064;16.612;2023-03-01T10:11:51;20.30;42.40
26599;DHT22;14240;51.064;16.612;2023-03-01T10:17:46;18.60;44.40
26599;DHT22;14240;51.064;16.612;2023-03-01T10:20:23;18.00;45.40
26599;DHT22;14240;51.064;16.612;2023-03-01T10:22:49;17.50;46.10
26599;DHT22;14240;51.064;16.612;2023-03-01T10:28:24;16.80;47.90
26599;DHT22;14240;51.064;16.612;2023-03-01T10:30:51;16.40;47.80
26599;DHT22;14240;51.064;16.612;2023-03-01T10:33:19;16.00;48.70
26599;DHT22;14240;51.064;16.612;2023-03-01T10:35:46;15.60;49.20
26599;DHT22;14240;51.064;16.612;2023-03-01T10:38:14;15.30;49.50
26599;DHT22;14240;51.064;16.612;2023-03-01T10:46:30;14.40;51.30
26599;DHT22;14240;51.064;16.612;2023-03-01T10:49:16;14.10;51.70
26599;DHT22;14240;51.064;16.612;2023-03-01T10:51:47;13.90;52.20
26599;DHT22;14240;51.064;16.612;2023-03-01T10:57:04;13.50;52.80
26599;DHT22;14240;51.064;16.612;2023-03-01T11:07:58;12.70;54.50
26599;DHT22;14240;51.064;16.612;2023-03-01T11:10:27;12.60;55.20
26599;DHT22;14240;51.064;16.612;2023-03-01T11:12:56;12.50;55.20
26599;DHT22;14240;51.064;16.612;2023-03-01T11:15:30;12.20;55.30
26599;DHT22;14240;51.064;16.612;2023-03-01T11:17:56;12.10;55.70
26599;DHT22;14240;51.064;16.612;2023-03-01T11:20:35;12.00;55.90
26599;DHT22;14240;51.064;16.612;2023-03-01T11:23:05;11.80;56.30
26599;DHT22;14240;51.064;16.612;2023-03-01T11:25:36;11.70;56.50
26599;DHT22;14240;51.064;16.612;2023-03-01T11:28:05;11.50;56.80
26599;DHT22;14240;51.064;16.612;2023-03-01T11:33:16;11.30;57.30
26599;DHT22;14240;51.064;16.612;2023-03-01T11:38:48;11.10;57.90
26599;DHT22;14240;51.064;16.612;2023-03-01T11:41:35;11.00;57.90
26599;DHT22;14240;51.064;16.612;2023-03-01T11:44:05;10.80;57.60
26599;DHT22;14240;51.064;16.612;2023-03-01T11:46:45;10.70;57.70
26599;DHT22;14240;51.064;16.612;2023-03-01T11:52:18;10.50;57.90
26599;DHT22;14240;51.064;16.612;2023-03-01T12:00:17;10.00;58.40
26599;DHT22;14240;51.064;16.612;2023-03-01T12:08:59;9.80;59.50
26599;DHT22;14240;51.064;16.612;2023-03-01T12:50:06;8.70;63.50
26599;DHT22;14240;51.064;16.612;2023-03-01T12:53:03;8.60;63.60
26599;DHT22;14240;51.064;16.612;2023-03-01T12:55:40;8.50;64.20
26599;DHT22;14240;51.064;16.612;2023-03-01T12:58:38;8.50;64.50
26599;DHT22;14240;51.064;16.612;2023-03-01T13:04:05;8.40;64.30
26599;DHT22;14240;51.064;16.612;2023-03-01T13:09:23;8.30;64.50
26599;DHT22;14240;51.064;16.612;2023-03-01T13:11:50;8.30;64.30
26599;DHT22;14240;51.064;16.612;2023-03-01T13:16:54;8.20;64.40
26599;DHT22;14240;51.064;16.612;2023-03-01T13:19:25;8.20;64.50
26599;DHT22;14240;51.064;16.612;2023-03-01T13:21:53;8.30;64.50
26599;DHT22;14240;51.064;16.612;2023-03-01T13:24:41;8.20;64.10
26599;DHT22;14240;51.064;16.612;2023-03-01T13:29:51;8.20;64.50
26599;DHT22;14240;51.064;16.612;2023-03-01T13:32:25;8.20;64.00
26599;DHT22;14240;51.064;16.612;2023-03-01T13:37:42;8.10;64.50
26599;DHT22;14240;51.064;16.612;2023-03-01T13:42:55;8.10;64.50
26599;DHT22;14240;51.064;16.612;2023-03-01T13:45:37;8.10;64.50
26599;DHT22;14240;51.064;16.612;2023-03-01T13:48:25;8.20;64.80
26599;DHT22;14240;51.064;16.612;2023-03-01T13:51:07;8.20;65.00
26599;DHT22;14240;51.064;16.612;2023-03-01T13:53:37;8.20;64.70
26599;DHT22;14240;51.064;16.612;2023-03-01T13:56:13;8.20;64.40
26599;DHT22;14240;51.064;16.612;2023-03-01T13:58:58;8.20;64.60
26599;DHT22;14240;51.064;16.612;2023-03-01T14:01:30;8.20;64.60
26599;DHT22;14240;51.064;16.612;2023-03-01T14:03:57;8.20;64.60
26599;DHT22;14240;51.064;16.612;2023-03-01T14:06:29;8.20;64.30
26599;DHT22;14240;51.064;16.612;2023-03-01T14:16:48;8.10;64.30
26599;DHT22;14240;51.064;16.612;2023-03-01T14:19:21;8.00;64.40
26599;DHT22;14240;51.064;16.612;2023-03-01T14:22:14;8.00;64.70
26599;DHT22;14240;51.064;16.612;2023-03-01T14:24:50;8.00;64.70
26599;DHT22;14240;51.064;16.612;2023-03-01T14:27:17;8.00;64.60
26599;DHT22;14240;51.064;16.612;2023-03-01T14:29:44;7.90;64.50
26599;DHT22;14240;51.064;16.612;2023-03-01T14:32:21;7.80;64.40
26599;DHT22;14240;51.064;16.612;2023-03-01T14:34:50;7.80;64.50
26599;DHT22;14240;51.064;16.612;2023-03-01T14:37:22;7.80;64.50
26599;DHT22;14240;51.064;16.612;2023-03-01T14:39:49;7.70;64.40
26599;DHT22;14240;51.064;16.612;2023-03-01T14:42:15;7.70;64.00
26599;DHT22;14240;51.064;16.612;2023-03-01T14:44:43;7.70;63.90
26599;DHT22;14240;51.064;16.612;2023-03-01T14:47:14;7.60;63.80
26599;DHT22;14240;51.064;16.612;2023-03-01T14:49:42;7.70;63.80
26599;DHT22;14240;51.064;16.612;2023-03-01T14:52:20;7.60;63.60
26599;DHT22;14240;51.064;16.612;2023-03-01T14:54:51;7.60;63.70
26599;DHT22;14240;51.064;16.612;2023-03-01T14:57:25;7.60;63.80
26599;DHT22;14240;51.064;16.612;2023-03-01T14:59:57;7.50;63.80
26599;DHT22;14240;51.064;16.612;2023-03-01T15:02:25;7.50;63.80
26599;DHT22;14240;51.064;16.612;2023-03-01T15:04:55;7.50;64.00
26599;DHT22;14240;51.064;16.612;2023-03-01T15:07:30;7.50;64.30
26599;DHT22;14240;51.064;16.612;2023-03-01T15:09:58;7.50;64.30
26599;DHT22;14240;51.064;16.612;2023-03-01T15:14:54;7.40;64.30
26599;DHT22;14240;51.064;16.612;2023-03-01T15:17:29;7.30;64.30
26599;DHT22;14240;51.064;16.612;2023-03-01T15:19:56;7.30;64.10
26599;DHT22;14240;51.064;16.612;2023-03-01T15:22:24;7.20;64.00
26599;DHT22;14240;51.064;16.612;2023-03-01T15:24:51;7.20;63.80
26599;DHT22;14240;51.064;16.612;2023-03-01T15:27:19;7.10;64.10
26599;DHT22;14240;51.064;16.612;2023-03-01T15:29:52;7.10;64.50
26599;DHT22;14240;51.064;16.612;2023-03-01T15:32:31;7.00;64.70
26599;DHT22;14240;51.064;16.612;2023-03-01T15:35:31;6.90;64.60
26599;DHT22;14240;51.064;16.612;2023-03-01T15:37:48;6.90;64.70
26599;DHT22;14240;51.064;16.612;2023-03-01T15:43:05;6.80;65.20
26599;DHT22;14240;51.064;16.612;2023-03-01T15:45:34;6.70;65.00
26599;DHT22;14240;51.064;16.612;2023-03-01T15:48:24;6.70;65.10
26599;DHT22;14240;51.064;16.612;2023-03-01T15:50:58;6.60;65.40
26599;DHT22;14240;51.064;16.612;2023-03-01T15:53:26;6.60;65.40
26599;DHT22;14240;51.064;16.612;2023-03-01T15:55:53;6.50;65.50
26599;DHT22;14240;51.064;16.612;2023-03-01T15:58:23;6.50;65.70
26599;DHT22;14240;51.064;16.612;2023-03-01T16:00:50;6.50;65.80
26599;DHT22;14240;51.064;16.612;2023-03-01T16:03:22;6.40;66.00
26599;DHT22;14240;51.064;16.612;2023-03-01T16:05:51;6.40;66.10
26599;DHT22;14240;51.064;16.612;2023-03-01T16:08:18;6.30;66.00
26599;DHT22;14240;51.064;16.612;2023-03-01T16:10:44;6.20;65.80
26599;DHT22;14240;51.064;16.612;2023-03-01T16:13:15;6.20;65.50
26599;DHT22;14240;51.064;16.612;2023-03-01T16:15:41;6.10;65.10
26599;DHT22;14240;51.064;16.612;2023-03-01T16:18:07;6.10;64.90
26599;DHT22;14240;51.064;16.612;2023-03-01T16:20:35;6.00;64.80
26599;DHT22;14240;51.064;16.612;2023-03-01T16:23:03;6.00;65.50
26599;DHT22;14240;51.064;16.612;2023-03-01T16:25:31;5.90;66.50
26599;DHT22;14240;51.064;16.612;2023-03-01T16:27:58;5.80;67.40
26599;DHT22;14240;51.064;16.612;2023-03-01T16:30:26;5.70;68.10
26599;DHT22;14240;51.064;16.612;2023-03-01T16:32:52;5.60;68.90
26599;DHT22;14240;51.064;16.612;2023-03-01T16:35:20;5.50;69.70
26599;DHT22;14240;51.064;16.612;2023-03-01T16:37:47;5.40;70.20
26599;DHT22;14240;51.064;16.612;2023-03-01T16:40:19;5.30;70.60
26599;DHT22;14240;51.064;16.612;2023-03-01T16:42:47;5.20;71.00
26599;DHT22;14240;51.064;16.612;2023-03-01T16:45:13;5.10;71.50
26599;DHT22;14240;51.064;16.612;2023-03-01T16:47:38;5.00;72.00
26599;DHT22;14240;51.064;16.612;2023-03-01T16:50:04;4.80;72.20
26599;DHT22;14240;51.064;16.612;2023-03-01T16:52:30;4.80;72.20
26599;DHT22;14240;51.064;16.612;2023-03-01T16:54:56;4.70;72.10
26599;DHT22;14240;51.064;16.612;2023-03-01T16:57:22;4.60;72.20
26599;DHT22;14240;51.064;16.612;2023-03-01T16:59:54;4.50;72.20
26599;DHT22;14240;51.064;16.612;2023-03-01T17:02:20;4.40;72.30
26599;DHT22;14240;51.064;16.612;2023-03-01T17:04:52;4.40;72.50
26599;DHT22;14240;51.064;16.612;2023-03-01T17:07:18;4.30;73.00
26599;DHT22;14240;51.064;16.612;2023-03-01T17:09:44;4.20;73.30
26599;DHT22;14240;51.064;16.612;2023-03-01T17:12:12;4.20;73.60
26599;DHT22;14240;51.064;16.612;2023-03-01T17:14:38;4.10;73.60
26599;DHT22;14240;51.064;16.612;2023-03-01T17:17:10;4.10;73.80
26599;DHT22;14240;51.064;16.612;2023-03-01T17:19:36;4.10;73.90
26599;DHT22;14240;51.064;16.612;2023-03-01T17:22:09;4.00;74.80
26599;DHT22;14240;51.064;16.612;2023-03-01T17:24:37;4.00;74.20
26599;DHT22;14240;51.064;16.612;2023-03-01T17:27:04;4.00;74.20
26599;DHT22;14240;51.064;16.612;2023-03-01T17:29:30;3.90;74.20
26599;DHT22;14240;51.064;16.612;2023-03-01T17:31:56;3.90;74.20
26599;DHT22;14240;51.064;16.612;2023-03-01T17:34:23;3.90;74.20
26599;DHT22;14240;51.064;16.612;2023-03-01T17:36:49;3.90;74.50
26599;DHT22;14240;51.064;16.612;2023-03-01T17:39:17;3.80;74.70
26599;DHT22;14240;51.064;16.612;2023-03-01T17:41:46;3.80;75.00
26599;DHT22;14240;51.064;16.612;2023-03-01T17:44:11;3.70;75.20
26599;DHT22;14240;51.064;16.612;2023-03-01T17:46:37;3.70;75.40
26599;DHT22;14240;51.064;16.612;2023-03-01T17:49:03;3.60;75.80